Warren, RI (02885)

6:48 AM EDT on September 20, 2014 (GMT -0400)
South of Downtown Warren | Change Station
CLOSE
Current Station
Personal Weather Station
Location: Warren, RI
Elevation: 47 ft
Nearby Weather Stations

Elev 47 ft 41.72 °N, 71.28 °W | Updated 11 seconds ago

Clear
Clear
41.2 °F
Feels Like 41 °F
N
0.0
Wind Variable Wind from East
Gusts 0.0 mph

Today
High -- | Low -- °F
--% Chance of Precip.
Yesterday
High -- | Low -- °F
Precip. -- in
6:30 AM 6:45 PM
Waning Crescent, 13% visible
Pressure 30.38 in
Visibility 10.0 miles
Clouds Few 20000 ft
Windchill 41 °F
Dew Point 40 °F
Humidity 95%
Rainfall 0.00 in
Snow Depth Not available.
UV 0.0 out of 12
Pollen 3.60 out of 12
PM2.5 Good
Flu Activity Not available.
METAR KPVD 200951Z 34003KT 10SM FEW200 06/04 A3037 RMK AO2 SLP285 FIRST AUGMENTED T00610039

More Conditions Fewer Conditions

Pressure 30.38 in
Visibility 10.0 miles
Clouds Few 20000 ft
Windchill 41 °F
Dew Point 40 °F
Humidity 95%
Rainfall 0.00 in
Snow Depth Not available.
UV 0.0 out of 12
Pollen 3.60 out of 12
PM2.5 Good
Flu Activity Not available.
METAR KPVD 200951Z 34003KT 10SM FEW200 06/04 A3037 RMK AO2 SLP285 FIRST AUGMENTED T00610039

More Conditions Fewer Conditions

10-Day Weather Forecast

Almanac

Astronomy

Sep. 20, 2014 Rise Set
Actual Time 6:30 AM EDT 6:45 PM EDT
Civil Twilight 6:02 AM EDT 7:13 PM EDT
Nautical Twilight 5:29 AM EDT 7:46 PM EDT
Astronomical Twilight 4:56 AM EDT 8:19 PM EDT
Moon 3:04 AM EDT 4:49 PM EDT
Length of Visible Light 13h 10m
Length of Day
12h 15m
Tomorrow will be 2m 46s shorter.
Waning Crescent, 13% of the Moon is Illuminated
Today
Waning Crescent
Sep 24
New
Oct 1
First Quarter
Oct 8
Full
Oct 15
Last Quarter

Today's Extremes

State Highs State Lows

Community

WunderPhotos

Upload Photos

1,754,827 photos uploaded!

Nearby

Air Quality

  Air Quality AQ Index Pollutant
Yesterday Good
PM2.5
Yesterday Good
OZONE
Current Good
PM2.5
Saturday Good
PM2.5
Saturday Good
OZONE

Snow Depth

Station Depth Elevation
No new snow has been reported.

Earthquake Activity

City Distance Mag. Time & Date
No recent earthquake activity has been reported nearby.
Minimum magnitude displayed is 2.5.

Coastal Water Temperatures

Place Temperature
Newport, RI 64.9 °F
Quonset Point, RI 66.9 °F
Conimicut Light, RI 66.9 °F

Nearby Weather Stations